sensor_id;sensor_type;location;lat;lon;timestamp;temperature;humidity
4453;DHT22;2239;48.152;11.584;2023-09-07T00:01:08;16.80;99.90
4453;DHT22;2239;48.152;11.584;2023-09-07T00:03:34;16.80;99.90
4453;DHT22;2239;48.152;11.584;2023-09-07T00:05:59;16.80;99.90
4453;DHT22;2239;48.152;11.584;2023-09-07T00:08:25;16.80;99.90
4453;DHT22;2239;48.152;11.584;2023-09-07T00:10:51;16.70;99.90
4453;DHT22;2239;48.152;11.584;2023-09-07T00:13:17;16.70;99.90
4453;DHT22;2239;48.152;11.584;2023-09-07T00:15:42;16.60;99.90
4453;DHT22;2239;48.152;11.584;2023-09-07T00:18:08;16.60;99.90
4453;DHT22;2239;48.152;11.584;2023-09-07T00:20:33;16.60;99.90
4453;DHT22;2239;48.152;11.584;2023-09-07T00:23:00;16.60;99.90
4453;DHT22;2239;48.152;11.584;2023-09-07T00:25:26;16.60;99.90
4453;DHT22;2239;48.152;11.584;2023-09-07T00:27:51;16.50;99.90
4453;DHT22;2239;48.152;11.584;2023-09-07T00:30:17;16.50;99.90
4453;DHT22;2239;48.152;11.584;2023-09-07T00:32:43;16.60;99.90
4453;DHT22;2239;48.152;11.584;2023-09-07T00:35:09;16.50;99.90
4453;DHT22;2239;48.152;11.584;2023-09-07T00:37:34;16.50;99.90
4453;DHT22;2239;48.152;11.584;2023-09-07T00:40:00;16.50;99.90
4453;DHT22;2239;48.152;11.584;2023-09-07T00:42:25;16.50;99.90
4453;DHT22;2239;48.152;11.584;2023-09-07T00:44:51;16.60;99.90
4453;DHT22;2239;48.152;11.584;2023-09-07T00:47:17;16.60;99.90
4453;DHT22;2239;48.152;11.584;2023-09-07T00:49:43;16.50;99.90
4453;DHT22;2239;48.152;11.584;2023-09-07T00:52:09;16.50;99.90
4453;DHT22;2239;48.152;11.584;2023-09-07T00:54:38;16.50;99.90
4453;DHT22;2239;48.152;11.584;2023-09-07T00:57:06;16.50;99.90
4453;DHT22;2239;48.152;11.584;2023-09-07T00:59:35;16.40;99.90
4453;DHT22;2239;48.152;11.584;2023-09-07T01:02:01;16.40;99.90
4453;DHT22;2239;48.152;11.584;2023-09-07T01:04:26;16.50;99.90
4453;DHT22;2239;48.152;11.584;2023-09-07T01:07:03;16.50;99.90
4453;DHT22;2239;48.152;11.584;2023-09-07T01:09:32;16.60;99.90
4453;DHT22;2239;48.152;11.584;2023-09-07T01:12:00;16.50;99.90
4453;DHT22;2239;48.152;11.584;2023-09-07T01:14:25;16.50;99.90
4453;DHT22;2239;48.152;11.584;2023-09-07T01:16:51;16.50;99.90
4453;DHT22;2239;48.152;11.584;2023-09-07T01:19:17;16.40;99.90
4453;DHT22;2239;48.152;11.584;2023-09-07T01:21:43;16.50;99.90
4453;DHT22;2239;48.152;11.584;2023-09-07T01:24:09;16.50;99.90
4453;DHT22;2239;48.152;11.584;2023-09-07T01:26:36;16.50;99.90
4453;DHT22;2239;48.152;11.584;2023-09-07T01:29:08;16.50;99.90
4453;DHT22;2239;48.152;11.584;2023-09-07T01:31:38;16.40;99.90
4453;DHT22;2239;48.152;11.584;2023-09-07T01:34:04;16.40;99.90
4453;DHT22;2239;48.152;11.584;2023-09-07T01:36:30;16.40;99.90
4453;DHT22;2239;48.152;11.584;2023-09-07T01:38:56;16.40;99.90
4453;DHT22;2239;48.152;11.584;2023-09-07T01:41:21;16.40;99.90
4453;DHT22;2239;48.152;11.584;2023-09-07T01:43:47;16.40;99.90
4453;DHT22;2239;48.152;11.584;2023-09-07T01:46:13;16.40;99.90
4453;DHT22;2239;48.152;11.584;2023-09-07T01:48:39;16.30;99.90
4453;DHT22;2239;48.152;11.584;2023-09-07T01:51:04;16.30;99.90
4453;DHT22;2239;48.152;11.584;2023-09-07T01:53:30;16.20;99.90
4453;DHT22;2239;48.152;11.584;2023-09-07T01:55:55;16.10;99.90
4453;DHT22;2239;48.152;11.584;2023-09-07T01:58:21;16.00;99.90
4453;DHT22;2239;48.152;11.584;2023-09-07T02:00:49;16.00;99.90
4453;DHT22;2239;48.152;11.584;2023-09-07T02:03:14;15.90;99.90
4453;DHT22;2239;48.152;11.584;2023-09-07T02:05:40;15.80;99.90
4453;DHT22;2239;48.152;11.584;2023-09-07T02:08:06;15.80;99.90
4453;DHT22;2239;48.152;11.584;2023-09-07T02:10:31;15.80;99.90
4453;DHT22;2239;48.152;11.584;2023-09-07T02:12:57;15.80;99.90
4453;DHT22;2239;48.152;11.584;2023-09-07T02:15:23;15.80;99.90
4453;DHT22;2239;48.152;11.584;2023-09-07T02:17:49;15.80;99.90
4453;DHT22;2239;48.152;11.584;2023-09-07T02:20:15;15.80;99.90
4453;DHT22;2239;48.152;11.584;2023-09-07T02:22:40;15.70;99.90
4453;DHT22;2239;48.152;11.584;2023-09-07T02:25:06;15.70;99.90
4453;DHT22;2239;48.152;11.584;2023-09-07T02:27:32;15.70;99.90
4453;DHT22;2239;48.152;11.584;2023-09-07T02:29:58;15.60;99.90
4453;DHT22;2239;48.152;11.584;2023-09-07T02:32:23;15.50;99.90
4453;DHT22;2239;48.152;11.584;2023-09-07T02:34:49;15.50;99.90
4453;DHT22;2239;48.152;11.584;2023-09-07T02:37:15;15.50;99.90
4453;DHT22;2239;48.152;11.584;2023-09-07T02:39:41;15.50;99.90
4453;DHT22;2239;48.152;11.584;2023-09-07T02:42:07;15.50;99.90
4453;DHT22;2239;48.152;11.584;2023-09-07T02:44:33;15.40;99.90
4453;DHT22;2239;48.152;11.584;2023-09-07T02:46:58;15.40;99.90
4453;DHT22;2239;48.152;11.584;2023-09-07T02:49:24;15.40;99.90
4453;DHT22;2239;48.152;11.584;2023-09-07T02:51:50;15.50;99.90
4453;DHT22;2239;48.152;11.584;2023-09-07T02:54:15;15.50;99.90
4453;DHT22;2239;48.152;11.584;2023-09-07T02:56:41;15.40;99.90
4453;DHT22;2239;48.152;11.584;2023-09-07T02:59:06;15.50;99.90
4453;DHT22;2239;48.152;11.584;2023-09-07T03:01:32;15.40;99.90
4453;DHT22;2239;48.152;11.584;2023-09-07T03:03:57;15.50;99.90
4453;DHT22;2239;48.152;11.584;2023-09-07T03:06:23;15.50;99.90
4453;DHT22;2239;48.152;11.584;2023-09-07T03:08:48;15.50;99.90
4453;DHT22;2239;48.152;11.584;2023-09-07T03:11:14;15.40;99.90
4453;DHT22;2239;48.152;11.584;2023-09-07T03:13:40;15.30;99.90
4453;DHT22;2239;48.152;11.584;2023-09-07T03:16:05;15.30;99.90
4453;DHT22;2239;48.152;11.584;2023-09-07T03:18:31;15.30;99.90
4453;DHT22;2239;48.152;11.584;2023-09-07T03:20:59;15.30;99.90
4453;DHT22;2239;48.152;11.584;2023-09-07T03:23:25;15.30;99.90
4453;DHT22;2239;48.152;11.584;2023-09-07T03:25:50;15.20;99.90
4453;DHT22;2239;48.152;11.584;2023-09-07T03:28:16;15.20;99.90
4453;DHT22;2239;48.152;11.584;2023-09-07T03:30:42;15.20;99.90
4453;DHT22;2239;48.152;11.584;2023-09-07T03:33:07;15.20;99.90
4453;DHT22;2239;48.152;11.584;2023-09-07T03:35:33;15.20;99.90
4453;DHT22;2239;48.152;11.584;2023-09-07T03:37:59;15.30;99.90
4453;DHT22;2239;48.152;11.584;2023-09-07T03:40:24;15.30;99.90
4453;DHT22;2239;48.152;11.584;2023-09-07T03:42:50;15.30;99.90
4453;DHT22;2239;48.152;11.584;2023-09-07T03:45:16;15.30;99.90
4453;DHT22;2239;48.152;11.584;2023-09-07T03:47:42;15.20;99.90
4453;DHT22;2239;48.152;11.584;2023-09-07T03:50:08;15.20;99.90
4453;DHT22;2239;48.152;11.584;2023-09-07T03:52:33;15.20;99.90
4453;DHT22;2239;48.152;11.584;2023-09-07T03:54:59;15.20;99.90
4453;DHT22;2239;48.152;11.584;2023-09-07T03:57:25;15.10;99.90
4453;DHT22;2239;48.152;11.584;2023-09-07T03:59:51;15.10;99.90
4453;DHT22;2239;48.152;11.584;2023-09-07T04:02:17;15.10;99.90
4453;DHT22;2239;48.152;11.584;2023-09-07T04:04:50;15.00;99.90
4453;DHT22;2239;48.152;11.584;2023-09-07T04:07:16;15.00;99.90
4453;DHT22;2239;48.152;11.584;2023-09-07T04:09:42;15.00;99.90
4453;DHT22;2239;48.152;11.584;2023-09-07T04:12:08;15.00;99.90
4453;DHT22;2239;48.152;11.584;2023-09-07T04:14:34;15.00;99.90
4453;DHT22;2239;48.152;11.584;2023-09-07T04:17:00;15.00;99.90
4453;DHT22;2239;48.152;11.584;2023-09-07T04:19:26;15.00;99.90
4453;DHT22;2239;48.152;11.584;2023-09-07T04:21:52;15.10;99.90
4453;DHT22;2239;48.152;11.584;2023-09-07T04:24:17;15.10;99.90
4453;DHT22;2239;48.152;11.584;2023-09-07T04:26:43;15.10;99.90
4453;DHT22;2239;48.152;11.584;2023-09-07T04:29:08;15.10;99.90
4453;DHT22;2239;48.152;11.584;2023-09-07T04:31:34;15.10;99.90
4453;DHT22;2239;48.152;11.584;2023-09-07T04:34:00;15.00;99.90
4453;DHT22;2239;48.152;11.584;2023-09-07T04:36:26;15.00;99.90
4453;DHT22;2239;48.152;11.584;2023-09-07T04:38:51;15.00;99.90
4453;DHT22;2239;48.152;11.584;2023-09-07T04:41:17;15.00;99.90
4453;DHT22;2239;48.152;11.584;2023-09-07T04:43:43;15.00;99.90
4453;DHT22;2239;48.152;11.584;2023-09-07T04:46:13;15.00;99.90
4453;DHT22;2239;48.152;11.584;2023-09-07T04:48:40;15.00;99.90
4453;DHT22;2239;48.152;11.584;2023-09-07T04:51:07;15.00;99.90
4453;DHT22;2239;48.152;11.584;2023-09-07T04:53:35;14.90;99.90
4453;DHT22;2239;48.152;11.584;2023-09-07T04:56:02;15.00;99.90
4453;DHT22;2239;48.152;11.584;2023-09-07T04:58:28;14.90;99.90
4453;DHT22;2239;48.152;11.584;2023-09-07T05:00:54;14.90;99.90
4453;DHT22;2239;48.152;11.584;2023-09-07T05:03:20;14.90;99.90
4453;DHT22;2239;48.152;11.584;2023-09-07T05:05:51;14.90;99.90
4453;DHT22;2239;48.152;11.584;2023-09-07T05:08:16;14.90;99.90
4453;DHT22;2239;48.152;11.584;2023-09-07T05:10:42;14.90;99.90
4453;DHT22;2239;48.152;11.584;2023-09-07T05:13:08;14.90;99.90
4453;DHT22;2239;48.152;11.584;2023-09-07T05:15:33;14.90;99.90
4453;DHT22;2239;48.152;11.584;2023-09-07T05:17:59;14.90;99.90
4453;DHT22;2239;48.152;11.584;2023-09-07T05:20:24;14.90;99.90
4453;DHT22;2239;48.152;11.584;2023-09-07T05:22:50;14.90;99.90
4453;DHT22;2239;48.152;11.584;2023-09-07T05:25:16;15.00;99.90
4453;DHT22;2239;48.152;11.584;2023-09-07T05:27:41;15.10;99.90
4453;DHT22;2239;48.152;11.584;2023-09-07T05:30:07;15.10;99.90
4453;DHT22;2239;48.152;11.584;2023-09-07T05:32:33;15.30;99.90
4453;DHT22;2239;48.152;11.584;2023-09-07T05:34:58;15.40;99.90
4453;DHT22;2239;48.152;11.584;2023-09-07T05:37:24;15.40;99.90
4453;DHT22;2239;48.152;11.584;2023-09-07T05:39:49;15.60;99.90
4453;DHT22;2239;48.152;11.584;2023-09-07T05:42:15;15.60;99.90
4453;DHT22;2239;48.152;11.584;2023-09-07T05:44:41;15.70;99.90
4453;DHT22;2239;48.152;11.584;2023-09-07T05:47:07;15.80;99.90
4453;DHT22;2239;48.152;11.584;2023-09-07T05:49:32;15.90;99.90
4453;DHT22;2239;48.152;11.584;2023-09-07T05:51:58;16.00;99.90
4453;DHT22;2239;48.152;11.584;2023-09-07T05:54:23;16.20;99.90
4453;DHT22;2239;48.152;11.584;2023-09-07T05:56:49;16.20;99.90
4453;DHT22;2239;48.152;11.584;2023-09-07T05:59:14;16.20;99.90
4453;DHT22;2239;48.152;11.584;2023-09-07T06:01:40;16.30;99.90
4453;DHT22;2239;48.152;11.584;2023-09-07T06:04:06;16.40;99.90
4453;DHT22;2239;48.152;11.584;2023-09-07T06:06:32;16.50;99.90
4453;DHT22;2239;48.152;11.584;2023-09-07T06:08:57;16.60;99.90
4453;DHT22;2239;48.152;11.584;2023-09-07T06:11:26;16.70;99.90
4453;DHT22;2239;48.152;11.584;2023-09-07T06:13:51;16.70;99.90
4453;DHT22;2239;48.152;11.584;2023-09-07T06:16:17;16.90;99.90
4453;DHT22;2239;48.152;11.584;2023-09-07T06:18:43;16.90;99.90
4453;DHT22;2239;48.152;11.584;2023-09-07T06:21:09;17.00;99.90
4453;DHT22;2239;48.152;11.584;2023-09-07T06:23:34;17.20;99.90
4453;DHT22;2239;48.152;11.584;2023-09-07T06:26:00;17.30;99.90
4453;DHT22;2239;48.152;11.584;2023-09-07T06:28:26;17.40;99.90
4453;DHT22;2239;48.152;11.584;2023-09-07T06:30:52;17.50;99.90
4453;DHT22;2239;48.152;11.584;2023-09-07T06:33:18;17.60;99.90
4453;DHT22;2239;48.152;11.584;2023-09-07T06:35:43;17.60;99.90
4453;DHT22;2239;48.152;11.584;2023-09-07T06:38:09;17.70;99.90
4453;DHT22;2239;48.152;11.584;2023-09-07T06:40:34;17.80;99.90
4453;DHT22;2239;48.152;11.584;2023-09-07T06:43:00;17.70;99.90
4453;DHT22;2239;48.152;11.584;2023-09-07T06:45:34;17.70;99.90
4453;DHT22;2239;48.152;11.584;2023-09-07T06:48:01;17.80;99.90
4453;DHT22;2239;48.152;11.584;2023-09-07T06:50:27;17.80;99.90
4453;DHT22;2239;48.152;11.584;2023-09-07T06:52:52;17.90;99.90
4453;DHT22;2239;48.152;11.584;2023-09-07T06:55:18;18.00;99.90
4453;DHT22;2239;48.152;11.584;2023-09-07T06:57:43;18.20;99.90
4453;DHT22;2239;48.152;11.584;2023-09-07T07:00:09;18.40;99.90
4453;DHT22;2239;48.152;11.584;2023-09-07T07:02:35;18.70;99.90
4453;DHT22;2239;48.152;11.584;2023-09-07T07:05:01;18.90;99.90
4453;DHT22;2239;48.152;11.584;2023-09-07T07:07:29;19.00;99.90
4453;DHT22;2239;48.152;11.584;2023-09-07T07:09:55;18.80;99.90
4453;DHT22;2239;48.152;11.584;2023-09-07T07:12:20;18.80;99.90
4453;DHT22;2239;48.152;11.584;2023-09-07T07:14:46;18.80;99.90
4453;DHT22;2239;48.152;11.584;2023-09-07T07:17:12;19.00;99.90
4453;DHT22;2239;48.152;11.584;2023-09-07T07:19:37;19.10;99.90
4453;DHT22;2239;48.152;11.584;2023-09-07T07:22:03;19.20;99.90
4453;DHT22;2239;48.152;11.584;2023-09-07T07:24:29;19.30;99.90
4453;DHT22;2239;48.152;11.584;2023-09-07T07:26:54;19.40;99.90
4453;DHT22;2239;48.152;11.584;2023-09-07T07:29:20;19.80;99.90
4453;DHT22;2239;48.152;11.584;2023-09-07T07:31:46;20.20;99.90
4453;DHT22;2239;48.152;11.584;2023-09-07T07:34:12;20.40;99.90
4453;DHT22;2239;48.152;11.584;2023-09-07T07:36:38;20.30;99.90
4453;DHT22;2239;48.152;11.584;2023-09-07T07:39:04;20.30;99.90
4453;DHT22;2239;48.152;11.584;2023-09-07T07:41:32;20.50;99.90
4453;DHT22;2239;48.152;11.584;2023-09-07T07:43:57;20.70;99.90
4453;DHT22;2239;48.152;11.584;2023-09-07T07:46:23;21.00;99.90
4453;DHT22;2239;48.152;11.584;2023-09-07T07:48:48;21.10;99.90
4453;DHT22;2239;48.152;11.584;2023-09-07T07:51:14;21.40;99.90
4453;DHT22;2239;48.152;11.584;2023-09-07T07:53:40;21.40;99.90
4453;DHT22;2239;48.152;11.584;2023-09-07T07:56:05;21.70;99.90
4453;DHT22;2239;48.152;11.584;2023-09-07T07:58:31;21.70;99.90
4453;DHT22;2239;48.152;11.584;2023-09-07T08:00:56;21.90;99.90
4453;DHT22;2239;48.152;11.584;2023-09-07T08:03:24;22.10;99.90
4453;DHT22;2239;48.152;11.584;2023-09-07T08:05:49;22.30;99.90
4453;DHT22;2239;48.152;11.584;2023-09-07T08:08:15;22.10;99.90
4453;DHT22;2239;48.152;11.584;2023-09-07T08:10:40;22.10;99.90
4453;DHT22;2239;48.152;11.584;2023-09-07T08:13:07;22.50;99.90
4453;DHT22;2239;48.152;11.584;2023-09-07T08:15:33;22.80;99.90
4453;DHT22;2239;48.152;11.584;2023-09-07T08:18:00;23.10;99.90
4453;DHT22;2239;48.152;11.584;2023-09-07T08:20:26;23.30;99.90
4453;DHT22;2239;48.152;11.584;2023-09-07T08:22:52;23.50;99.90
4453;DHT22;2239;48.152;11.584;2023-09-07T08:25:18;23.40;99.90
4453;DHT22;2239;48.152;11.584;2023-09-07T08:27:44;23.40;99.90
4453;DHT22;2239;48.152;11.584;2023-09-07T08:30:12;23.70;99.90
4453;DHT22;2239;48.152;11.584;2023-09-07T08:32:39;23.90;99.90
4453;DHT22;2239;48.152;11.584;2023-09-07T08:35:05;24.10;99.90
4453;DHT22;2239;48.152;11.584;2023-09-07T08:37:33;24.20;99.90
4453;DHT22;2239;48.152;11.584;2023-09-07T08:39:59;24.30;99.90
4453;DHT22;2239;48.152;11.584;2023-09-07T08:42:25;24.60;99.90
4453;DHT22;2239;48.152;11.584;2023-09-07T08:44:51;24.80;99.70
4453;DHT22;2239;48.152;11.584;2023-09-07T08:47:20;25.00;99.10
4453;DHT22;2239;48.152;11.584;2023-09-07T08:49:46;25.10;98.70
4453;DHT22;2239;48.152;11.584;2023-09-07T08:52:14;25.40;98.60
4453;DHT22;2239;48.152;11.584;2023-09-07T08:54:43;25.80;97.70
4453;DHT22;2239;48.152;11.584;2023-09-07T08:57:10;26.00;97.30
4453;DHT22;2239;48.152;11.584;2023-09-07T08:59:36;26.00;96.70
4453;DHT22;2239;48.152;11.584;2023-09-07T09:02:02;25.90;96.70
4453;DHT22;2239;48.152;11.584;2023-09-07T09:04:29;26.00;96.70
4453;DHT22;2239;48.152;11.584;2023-09-07T09:06:56;26.10;96.50
4453;DHT22;2239;48.152;11.584;2023-09-07T09:09:24;26.10;96.50
4453;DHT22;2239;48.152;11.584;2023-09-07T09:11:50;26.00;96.50
4453;DHT22;2239;48.152;11.584;2023-09-07T09:14:19;25.90;96.40
4453;DHT22;2239;48.152;11.584;2023-09-07T09:16:49;25.80;96.40
4453;DHT22;2239;48.152;11.584;2023-09-07T09:19:15;25.80;96.90
4453;DHT22;2239;48.152;11.584;2023-09-07T09:21:41;25.90;96.80
4453;DHT22;2239;48.152;11.584;2023-09-07T09:24:10;26.10;96.40
4453;DHT22;2239;48.152;11.584;2023-09-07T09:26:38;26.20;96.40
4453;DHT22;2239;48.152;11.584;2023-09-07T09:29:04;26.40;96.30
4453;DHT22;2239;48.152;11.584;2023-09-07T09:31:30;26.60;95.70
4453;DHT22;2239;48.152;11.584;2023-09-07T09:33:56;26.70;95.50
4453;DHT22;2239;48.152;11.584;2023-09-07T09:36:22;26.70;95.60
4453;DHT22;2239;48.152;11.584;2023-09-07T09:38:52;26.80;95.50
4453;DHT22;2239;48.152;11.584;2023-09-07T09:41:20;26.70;95.60
4453;DHT22;2239;48.152;11.584;2023-09-07T09:43:47;26.90;95.00
4453;DHT22;2239;48.152;11.584;2023-09-07T09:46:17;27.00;95.00
4453;DHT22;2239;48.152;11.584;2023-09-07T09:48:44;27.00;94.90
4453;DHT22;2239;48.152;11.584;2023-09-07T09:51:10;27.20;94.90
4453;DHT22;2239;48.152;11.584;2023-09-07T09:53:37;27.00;94.50
4453;DHT22;2239;48.152;11.584;2023-09-07T09:56:03;26.80;94.90
4453;DHT22;2239;48.152;11.584;2023-09-07T09:58:29;26.70;95.20
4453;DHT22;2239;48.152;11.584;2023-09-07T10:00:56;26.80;95.50
4453;DHT22;2239;48.152;11.584;2023-09-07T10:03:26;27.00;95.20
4453;DHT22;2239;48.152;11.584;2023-09-07T10:05:53;27.10;94.70
4453;DHT22;2239;48.152;11.584;2023-09-07T10:08:20;27.00;95.20
4453;DHT22;2239;48.152;11.584;2023-09-07T10:10:49;27.20;95.00
4453;DHT22;2239;48.152;11.584;2023-09-07T10:13:32;27.20;94.30
4453;DHT22;2239;48.152;11.584;2023-09-07T10:16:02;27.00;94.80
4453;DHT22;2239;48.152;11.584;2023-09-07T10:18:34;26.90;94.80
4453;DHT22;2239;48.152;11.584;2023-09-07T10:21:00;27.00;95.30
4453;DHT22;2239;48.152;11.584;2023-09-07T10:23:40;27.30;94.70
4453;DHT22;2239;48.152;11.584;2023-09-07T10:26:18;27.70;94.40
4453;DHT22;2239;48.152;11.584;2023-09-07T10:28:46;27.90;93.80
4453;DHT22;2239;48.152;11.584;2023-09-07T10:31:19;27.80;93.80
4453;DHT22;2239;48.152;11.584;2023-09-07T10:33:45;27.90;93.10
4453;DHT22;2239;48.152;11.584;2023-09-07T10:36:26;28.00;92.90
4453;DHT22;2239;48.152;11.584;2023-09-07T10:38:53;28.10;93.10
4453;DHT22;2239;48.152;11.584;2023-09-07T10:41:19;28.30;92.70
4453;DHT22;2239;48.152;11.584;2023-09-07T10:43:54;28.30;92.30
4453;DHT22;2239;48.152;11.584;2023-09-07T10:46:21;28.60;92.40
4453;DHT22;2239;48.152;11.584;2023-09-07T10:48:51;28.40;92.20
4453;DHT22;2239;48.152;11.584;2023-09-07T10:51:18;28.00;92.90
4453;DHT22;2239;48.152;11.584;2023-09-07T10:53:43;27.90;93.20
4453;DHT22;2239;48.152;11.584;2023-09-07T10:56:09;27.70;93.30
4453;DHT22;2239;48.152;11.584;2023-09-07T10:58:36;27.70;94.00
4453;DHT22;2239;48.152;11.584;2023-09-07T11:01:07;27.90;93.10
4453;DHT22;2239;48.152;11.584;2023-09-07T11:03:34;28.00;93.10
4453;DHT22;2239;48.152;11.584;2023-09-07T11:06:09;28.00;93.00
4453;DHT22;2239;48.152;11.584;2023-09-07T11:08:35;27.90;92.90
4453;DHT22;2239;48.152;11.584;2023-09-07T11:11:04;28.00;93.20
4453;DHT22;2239;48.152;11.584;2023-09-07T11:13:30;27.90;93.30
4453;DHT22;2239;48.152;11.584;2023-09-07T11:15:58;27.70;93.10
4453;DHT22;2239;48.152;11.584;2023-09-07T11:18:24;27.60;93.60
4453;DHT22;2239;48.152;11.584;2023-09-07T11:20:51;27.60;93.20
4453;DHT22;2239;48.152;11.584;2023-09-07T11:23:18;27.30;93.60
4453;DHT22;2239;48.152;11.584;2023-09-07T11:25:44;27.00;94.10
4453;DHT22;2239;48.152;11.584;2023-09-07T11:28:09;27.10;94.00
4453;DHT22;2239;48.152;11.584;2023-09-07T11:30:49;27.20;94.00
4453;DHT22;2239;48.152;11.584;2023-09-07T11:33:16;27.30;94.00
4453;DHT22;2239;48.152;11.584;2023-09-07T11:35:41;27.50;94.20
4453;DHT22;2239;48.152;11.584;2023-09-07T11:38:07;27.60;93.70
4453;DHT22;2239;48.152;11.584;2023-09-07T11:40:35;27.50;93.70
4453;DHT22;2239;48.152;11.584;2023-09-07T11:43:01;27.50;93.60
4453;DHT22;2239;48.152;11.584;2023-09-07T11:45:26;27.30;93.70
4453;DHT22;2239;48.152;11.584;2023-09-07T11:47:52;27.30;94.00
4453;DHT22;2239;48.152;11.584;2023-09-07T11:50:18;27.30;93.80
4453;DHT22;2239;48.152;11.584;2023-09-07T11:52:45;27.40;94.00
4453;DHT22;2239;48.152;11.584;2023-09-07T11:55:11;27.50;93.90
4453;DHT22;2239;48.152;11.584;2023-09-07T11:57:37;27.60;93.60
4453;DHT22;2239;48.152;11.584;2023-09-07T12:00:03;27.60;93.50
4453;DHT22;2239;48.152;11.584;2023-09-07T12:02:30;27.60;93.50
4453;DHT22;2239;48.152;11.584;2023-09-07T12:04:55;27.40;93.40
4453;DHT22;2239;48.152;11.584;2023-09-07T12:07:21;27.60;93.80
4453;DHT22;2239;48.152;11.584;2023-09-07T12:09:47;27.70;93.40
4453;DHT22;2239;48.152;11.584;2023-09-07T12:12:13;27.80;93.00
4453;DHT22;2239;48.152;11.584;2023-09-07T12:14:39;27.90;93.10
4453;DHT22;2239;48.152;11.584;2023-09-07T12:17:04;27.90;92.80
4453;DHT22;2239;48.152;11.584;2023-09-07T12:19:30;27.90;92.80
4453;DHT22;2239;48.152;11.584;2023-09-07T12:21:56;28.10;92.70
4453;DHT22;2239;48.152;11.584;2023-09-07T12:24:21;28.00;92.30
4453;DHT22;2239;48.152;11.584;2023-09-07T12:26:47;27.80;92.60
4453;DHT22;2239;48.152;11.584;2023-09-07T12:29:13;27.80;92.50
4453;DHT22;2239;48.152;11.584;2023-09-07T12:31:38;27.70;92.60
4453;DHT22;2239;48.152;11.584;2023-09-07T12:34:04;27.80;92.60
4453;DHT22;2239;48.152;11.584;2023-09-07T12:36:30;28.10;92.60
4453;DHT22;2239;48.152;11.584;2023-09-07T12:38:56;28.20;92.00
4453;DHT22;2239;48.152;11.584;2023-09-07T12:41:28;28.10;91.80
4453;DHT22;2239;48.152;11.584;2023-09-07T12:43:54;27.90;91.80
4453;DHT22;2239;48.152;11.584;2023-09-07T12:46:19;27.80;92.10
4453;DHT22;2239;48.152;11.584;2023-09-07T12:48:45;27.60;92.30
4453;DHT22;2239;48.152;11.584;2023-09-07T12:51:10;27.50;92.40
4453;DHT22;2239;48.152;11.584;2023-09-07T12:53:36;27.70;92.30
4453;DHT22;2239;48.152;11.584;2023-09-07T12:56:02;27.80;92.20
4453;DHT22;2239;48.152;11.584;2023-09-07T12:58:28;27.90;91.50
4453;DHT22;2239;48.152;11.584;2023-09-07T13:00:54;27.90;91.50
4453;DHT22;2239;48.152;11.584;2023-09-07T13:03:19;27.90;91.20
4453;DHT22;2239;48.152;11.584;2023-09-07T13:05:45;27.60;91.20
4453;DHT22;2239;48.152;11.584;2023-09-07T13:08:11;27.50;91.70
4453;DHT22;2239;48.152;11.584;2023-09-07T13:10:36;27.50;91.40
4453;DHT22;2239;48.152;11.584;2023-09-07T13:13:02;27.60;91.50
4453;DHT22;2239;48.152;11.584;2023-09-07T13:15:27;27.50;91.30
4453;DHT22;2239;48.152;11.584;2023-09-07T13:17:53;27.50;91.20
4453;DHT22;2239;48.152;11.584;2023-09-07T13:20:19;27.60;90.90
4453;DHT22;2239;48.152;11.584;2023-09-07T13:22:45;27.60;90.60
4453;DHT22;2239;48.152;11.584;2023-09-07T13:25:12;27.50;90.40
4453;DHT22;2239;48.152;11.584;2023-09-07T13:27:37;27.50;90.30
4453;DHT22;2239;48.152;11.584;2023-09-07T13:30:04;27.30;90.20
4453;DHT22;2239;48.152;11.584;2023-09-07T13:32:30;27.30;90.00
4453;DHT22;2239;48.152;11.584;2023-09-07T13:34:55;27.30;89.10
4453;DHT22;2239;48.152;11.584;2023-09-07T13:37:21;27.30;88.30
4453;DHT22;2239;48.152;11.584;2023-09-07T13:39:48;27.40;86.90
4453;DHT22;2239;48.152;11.584;2023-09-07T13:42:13;27.60;86.40
4453;DHT22;2239;48.152;11.584;2023-09-07T13:44:40;27.60;86.10
4453;DHT22;2239;48.152;11.584;2023-09-07T13:47:06;27.80;86.60
4453;DHT22;2239;48.152;11.584;2023-09-07T13:49:31;27.80;86.00
4453;DHT22;2239;48.152;11.584;2023-09-07T13:51:57;27.70;86.00
4453;DHT22;2239;48.152;11.584;2023-09-07T13:54:23;27.70;86.20
4453;DHT22;2239;48.152;11.584;2023-09-07T13:56:48;27.70;85.70
4453;DHT22;2239;48.152;11.584;2023-09-07T13:59:14;27.90;85.60
4453;DHT22;2239;48.152;11.584;2023-09-07T14:01:39;27.80;85.00
4453;DHT22;2239;48.152;11.584;2023-09-07T14:04:05;27.90;84.00
4453;DHT22;2239;48.152;11.584;2023-09-07T14:06:31;27.70;83.50
4453;DHT22;2239;48.152;11.584;2023-09-07T14:08:57;27.50;84.70
4453;DHT22;2239;48.152;11.584;2023-09-07T14:11:23;27.50;83.80
4453;DHT22;2239;48.152;11.584;2023-09-07T14:13:49;27.30;84.10
4453;DHT22;2239;48.152;11.584;2023-09-07T14:16:18;27.40;84.60
4453;DHT22;2239;48.152;11.584;2023-09-07T14:18:45;27.50;83.90
4453;DHT22;2239;48.152;11.584;2023-09-07T14:21:13;27.60;83.40
4453;DHT22;2239;48.152;11.584;2023-09-07T14:23:39;27.60;82.30
4453;DHT22;2239;48.152;11.584;2023-09-07T14:26:04;27.80;82.50
4453;DHT22;2239;48.152;11.584;2023-09-07T14:28:30;27.90;82.30
4453;DHT22;2239;48.152;11.584;2023-09-07T14:30:56;27.80;81.90
4453;DHT22;2239;48.152;11.584;2023-09-07T14:33:24;27.90;82.30
4453;DHT22;2239;48.152;11.584;2023-09-07T14:35:51;27.80;82.50
4453;DHT22;2239;48.152;11.584;2023-09-07T14:38:20;27.70;83.20
4453;DHT22;2239;48.152;11.584;2023-09-07T14:40:46;27.60;83.70
4453;DHT22;2239;48.152;11.584;2023-09-07T14:43:14;27.50;84.40
4453;DHT22;2239;48.152;11.584;2023-09-07T14:45:39;27.50;85.00
4453;DHT22;2239;48.152;11.584;2023-09-07T14:48:05;27.60;85.30
4453;DHT22;2239;48.152;11.584;2023-09-07T14:50:31;27.60;83.40
4453;DHT22;2239;48.152;11.584;2023-09-07T14:52:56;27.50;82.70
4453;DHT22;2239;48.152;11.584;2023-09-07T14:55:22;27.40;83.60
4453;DHT22;2239;48.152;11.584;2023-09-07T14:57:47;27.40;83.80
4453;DHT22;2239;48.152;11.584;2023-09-07T15:00:13;27.10;83.90
4453;DHT22;2239;48.152;11.584;2023-09-07T15:02:39;27.30;84.40
4453;DHT22;2239;48.152;11.584;2023-09-07T15:05:05;27.30;83.70
4453;DHT22;2239;48.152;11.584;2023-09-07T15:07:30;27.30;83.00
4453;DHT22;2239;48.152;11.584;2023-09-07T15:09:56;27.20;82.80
4453;DHT22;2239;48.152;11.584;2023-09-07T15:12:22;27.10;83.50
4453;DHT22;2239;48.152;11.584;2023-09-07T15:14:47;27.00;83.50
4453;DHT22;2239;48.152;11.584;2023-09-07T15:17:15;27.00;83.90
4453;DHT22;2239;48.152;11.584;2023-09-07T15:19:42;27.00;83.70
4453;DHT22;2239;48.152;11.584;2023-09-07T15:22:07;26.90;83.50
4453;DHT22;2239;48.152;11.584;2023-09-07T15:24:33;26.80;82.70
4453;DHT22;2239;48.152;11.584;2023-09-07T15:27:06;26.70;82.60
4453;DHT22;2239;48.152;11.584;2023-09-07T15:29:31;26.60;83.20
4453;DHT22;2239;48.152;11.584;2023-09-07T15:31:57;26.60;83.60
4453;DHT22;2239;48.152;11.584;2023-09-07T15:34:23;26.60;83.40
4453;DHT22;2239;48.152;11.584;2023-09-07T15:36:49;26.60;82.20
4453;DHT22;2239;48.152;11.584;2023-09-07T15:39:15;26.50;81.70